Dilbeek, Belgium
Current Conditions -  °F | °C
As of 4:20 PM on Thursday 30 Oct 2014 (Local Time) from EBBR Reporting Station
Clear Clear  
Wind Chill: 63°   Ceiling: Unl
Heat Index: 63°   Visibility: 6mi
Dew Point: 55°   Wind: 7mph
Humidity: 77%   Direction: 190°S
Pressure: 30.18"   Gusts: NA
Location:  50.85°N, 4.26°E
Report Text: EBBR 301520Z 19006KT CAVOK 17/13 Q1022 NOSIG
Loading
Personal Weather Stations






























Interactive Weather Map New forecast layout! Learn more

10-Day Weather Forecast

Advertisements
Track Severe Weather on mobile